Exmore, Virginia
Current Conditions -  °F | °C
As of 3:55 AM on Thursday 23 Oct 2014 (Local Time) from KMFV Reporting Station
Overcast Overcast  
Wind Chill: 54°   Ceiling: 2500
Heat Index: 54°   Visibility: 10mi
Dew Point: 45°   Wind: 14mph
Humidity: 72%   Direction: 310°NW
Pressure: 29.8"   Gusts: 29mph
Location:  37.53°N, 75.82°W
Report Text: KMFV 230755Z AUTO 31012G25KT 10SM OVC025 12/07 A2980 RMK AO2
Loading
Personal Weather Stations






























Interactive Weather Map
Tropical Storm Tracking
New forecast layout! Learn more

10-Day Weather Forecast

Advertisements
Track Severe Weather on mobile